• Join FlightAware (Why Join?)
  • Login
  • US Flag 
09:24AM EST


 

Airport Tracker/Info


-or-


 

Live Flight TrackerFlight Track Log ✈ CSZ9804 ✈ 04-Sep-2013 ✈ ZSLQ / HYN - ZGSZ / SZX

Flight Track Log - Related Links

Times and Time Zones

All times are in EDT time to prevent confusion due to time zone crossing. See the CSZ9804 flight status page for this flight to view local times or setup timezone preferences in your user account.

Time Position Orientation Groundspeed Altitude Reporting Facility
EDT Latitude Longitude Course Direction KTS MPH feet Rate Location/Type
09:03AM 28.3106 121.0772 231° Southwest  Level Estimated
09:04AM 28.2476 120.9896 231° Southwest  Level Estimated
09:05AM 28.1845 120.9021 231° Southwest  Level Estimated
09:06AM 28.1214 120.8148 231° Southwest  Level Estimated
09:07AM 28.0582 120.7275 231° Southwest  Level Estimated
09:08AM 27.9949 120.6403 231° Southwest  Level Estimated
09:09AM 27.9316 120.5532 231° Southwest  Level Estimated
09:10AM 27.8682 120.4662 231° Southwest  Level Estimated
09:10AM 28.3090 120.6840 230° Southwest 357 411 19,700  Level FlightAware
09:11AM 27.8048 120.3794 230° Southwest  Level Estimated
09:11AM 28.2670 120.6800 185° South 357 411 19,700  Level FlightAware
09:11AM 28.1880 120.6720 185° South 357 411 19,700  Level FlightAware
09:12AM 28.1240 120.6660 185° South 357 411 19,700  Level FlightAware
09:13AM 28.0690 120.6600 185° South 357 411 19,700  Level FlightAware
09:13AM 28.0060 120.6550 184° South 358 412 19,700  Level FlightAware
09:14AM 27.9460 120.6490 185° South 359 413 19,700  Level FlightAware
09:14AM 27.8820 120.6430 185° South 359 413 19,700  Level FlightAware
09:15AM 27.8200 120.6370 185° South 359 413 19,700  Level FlightAware
09:16AM 27.7710 120.6310 186° South 358 412 19,700  Level FlightAware
09:16AM 27.7030 120.6040 199° South 358 412 19,700  Level FlightAware
09:17AM 27.6390 120.5510 216° Southwest 359 413 19,700  Level FlightAware
09:18AM 27.5690 120.5020 212° Southwest 359 413 19,700  Level FlightAware
09:18AM 27.5210 120.4670 213° Southwest 360 414 19,700  Level FlightAware
09:19AM 27.4650 120.4270 212° Southwest 360 414 19,700  Level FlightAware
09:20AM 27.4140 120.3910 212° Southwest 359 413 19,700  Level FlightAware
09:21AM 27.3470 120.3440 212° Southwest 359 413 19,700  Level FlightAware
09:21AM 27.2830 120.2990 212° Southwest 359 413 19,700  Level FlightAware
09:22AM 27.2330 120.2630 213° Southwest 359 413 19,700  Level FlightAware
09:22AM 27.1900 120.2330 212° Southwest 358 412 19,700  Level FlightAware
09:23AM 27.1030 120.1720 212° Southwest 359 413 19,700 420 Level FlightAware
09:24AM 27.0750 120.1420 224° Southwest 363 418 20,300 1,740 Climbing FlightAware
09:24AM 27.0420 120.0840 237° Southwest 374 430 21,400 1,800 Climbing FlightAware
09:25AM 27.0080 120.0390 230° Southwest 379 436 22,300 1,680 Climbing FlightAware
09:26AM 26.9500 119.9970 213° Southwest 389 448 23,400 1,800 Climbing FlightAware
09:26AM 26.9080 119.9670 212° Southwest 390 449 24,300 1,980 Climbing FlightAware
09:27AM 26.8540 119.9290 212° Southwest 389 448 25,500 1,080 Climbing FlightAware
09:27AM 26.7990 119.8890 213° Southwest 392 451 25,600 60 Climbing FlightAware
09:28AM 26.7420 119.8500 211° Southwest 394 453 25,600  Level FlightAware
09:28AM 26.6900 119.8130 212° Southwest 394 453 25,600  Level FlightAware
09:29AM 26.6390 119.7760 213° Southwest 394 453 25,600  Level FlightAware
09:30AM 26.5800 119.7350 212° Southwest 394 453 25,600  Level FlightAware
09:30AM 26.5330 119.7020 212° Southwest 394 453 25,600  Level FlightAware
09:31AM 26.4750 119.6610 212° Southwest 394 453 25,600  Level FlightAware
09:31AM 26.4230 119.6250 212° Southwest 393 452 25,600  Level FlightAware
09:32AM 26.3580 119.5790 212° Southwest 392 451 25,600  Level FlightAware
09:33AM 26.3090 119.5450 212° Southwest 392 451 25,600  Level FlightAware
09:33AM 26.2350 119.4930 212° Southwest 392 451 25,600  Level FlightAware
09:34AM 26.1880 119.4600 212° Southwest 392 451 25,600  Level FlightAware
09:34AM 26.1290 119.4590 181° South 389 448 25,600  Level FlightAware
09:35AM 26.0680 119.4380 197° South 389 448 25,600  Level FlightAware
09:36AM 26.0060 119.4170 197° South 390 449 25,600  Level FlightAware
09:36AM 25.9870 119.4090 201° Southwest 392 451 25,600  Level FlightAware
09:36AM 25.9580 119.3900 211° Southwest 404 465 25,600  Level FlightAware
09:37AM 25.9120 119.3450 221° Southwest 411 473 25,600  Level FlightAware
09:37AM 25.8640 119.2970 222° Southwest 412 474 25,600  Level FlightAware
09:38AM 25.8150 119.2480 222° Southwest 414 476 25,600  Level FlightAware
09:38AM 25.7640 119.1970 222° Southwest 414 476 25,600  Level FlightAware
09:39AM 25.7100 119.1430 222° Southwest 415 478 25,600  Level FlightAware
09:39AM 25.6650 119.0980 222° Southwest 415 478 25,600  Level FlightAware
09:40AM 25.6140 119.0480 221° Southwest 415 478 25,600  Level FlightAware
09:41AM 25.5620 118.9960 222° Southwest 414 476 25,600  Level FlightAware
09:41AM 25.5130 118.9470 222° Southwest 414 476 25,600  Level FlightAware
09:42AM 25.4620 118.8960 222° Southwest 414 476 25,600  Level FlightAware
09:42AM 25.4100 118.8440 222° Southwest 414 476 25,600  Level FlightAware
09:43AM 25.3620 118.7970 222° Southwest 415 478 25,600  Level FlightAware
09:44AM 25.3100 118.7460 222° Southwest 414 476 25,600  Level FlightAware
09:44AM 25.2610 118.6980 222° Southwest 415 478 25,600  Level FlightAware
09:45AM 25.2120 118.6490 222° Southwest 418 481 25,600  Level FlightAware
09:45AM 25.1590 118.5980 221° Southwest 417 480 25,600  Level FlightAware
09:46AM 25.1150 118.5550 222° Southwest 417 480 25,600  Level FlightAware
09:47AM 25.0700 118.5120 221° Southwest 417 480 25,600  Level FlightAware
09:47AM 25.0260 118.4700 221° Southwest 417 480 25,600  Level FlightAware
09:48AM 24.9810 118.4270 221° Southwest 417 480 25,600  Level FlightAware
09:48AM 24.9370 118.3840 222° Southwest 417 480 25,600 -180 Level FlightAware
09:51AM 24.8384 118.1786 242° Southwest  Level Estimated
09:52AM 24.7917 118.0816 242° Southwest  Level Estimated
09:53AM 24.7450 117.9847 242° Southwest  Level Estimated
09:54AM 24.6982 117.8879 242° Southwest  Level Estimated
09:55AM 24.6513 117.7912 242° Southwest  Level Estimated
09:56AM 24.6043 117.6945 242° Southwest  Level Estimated
09:57AM 24.5574 117.5979 242° Southwest  Level Estimated
09:58AM 24.5103 117.5014 242° Southwest  Level Estimated
09:59AM 24.4632 117.4050 242° Southwest  Level Estimated
10:00AM 24.4160 117.3086 242° Southwest  Level Estimated
10:01AM 24.3688 117.2123 242° Southwest  Level Estimated
10:02AM 24.3215 117.1161 242° Southwest  Level Estimated
10:03AM 24.2741 117.0199 242° Southwest  Level Estimated
10:04AM 24.2267 116.9239 242° Southwest  Level Estimated
10:05AM 24.1792 116.8279 242° Southwest  Level Estimated
10:06AM 24.1317 116.7319 242° Southwest  Level Estimated
10:07AM 24.0841 116.6360 241° Southwest  Level Estimated
10:08AM 24.0364 116.5402 241° Southwest  Level Estimated
10:09AM 23.9887 116.4445 241° Southwest  Level Estimated
10:10AM 23.9409 116.3489 241° Southwest  Level Estimated
10:11AM 23.8931 116.2533 241° Southwest  Level Estimated
10:12AM 23.8452 116.1578 241° Southwest  Level Estimated
10:13AM 23.7972 116.0623 241° Southwest  Level Estimated
10:14AM 23.7492 115.9670 241° Southwest  Level Estimated
10:15AM 23.7011 115.8717 241° Southwest  Level Estimated
10:16AM 23.6530 115.7764 241° Southwest  Level Estimated
10:17AM 23.6048 115.6813 241° Southwest  Level Estimated
10:18AM 23.5565 115.5862 241° Southwest  Level Estimated
10:19AM 23.5082 115.4912 241° Southwest  Level Estimated
10:20AM 23.4599 115.3962 241° Southwest  Level Estimated
10:21AM 23.4114 115.3013 241° Southwest  Level Estimated
10:21AM 22.8360 115.2520 241° Southwest 388 447 19,800  Level FlightAware
10:22AM 23.3630 115.2065 241° Southwest  Level Estimated
10:22AM 22.8290 115.1920 263° West 387 445 19,600  Level FlightAware
10:22AM 22.8230 115.1320 264° West 387 445 19,600  Level FlightAware
10:23AM 22.8160 115.0760 262° West 387 445 19,600  Level FlightAware
10:24AM 22.8100 115.0170 264° West 387 445 19,600  Level FlightAware
10:24AM 22.8030 114.9580 263° West 387 445 19,600  Level FlightAware
10:25AM 22.7960 114.8970 263° West 387 445 19,600 -4,080 Level FlightAware
10:25AM 22.7870 114.7840 265° West 352 405 14,800 -4,140 Descending FlightAware
10:26AM 22.7810 114.7220 264° West 339 390 14,800 -180 Level FlightAware
10:27AM 22.7750 114.6640 264° West 310 357 14,600 -780 Descending FlightAware
10:27AM 22.7690 114.6090 263° West 304 350 13,900 -1,140 Descending FlightAware
10:28AM 22.7650 114.5600 265° West 300 345 13,300 -1,080 Descending FlightAware
10:28AM 22.7590 114.5040 263° West 296 341 12,700 -1,020 Descending FlightAware
10:29AM 22.7530 114.4530 263° West 293 337 12,100 -780 Descending FlightAware
10:29AM 22.7480 114.4010 264° West 264 304 11,800 -480 Descending FlightAware
10:30AM 22.7440 114.3630 263° West 244 281 11,600 -600 Descending FlightAware
10:30AM 22.7410 114.3500 256° West 241 277 11,400 -1,080 Descending FlightAware
10:31AM 22.7040 114.3140 222° Southwest 233 268 10,600 -1,140 Descending FlightAware
10:32AM 22.6760 114.2880 221° Southwest 233 268 9,900 -1,200 Descending FlightAware
10:32AM 22.6720 114.2800 242° Southwest 233 268 9,800 -900 Descending FlightAware
10:32AM 22.6710 114.2710 263° West 233 268 9,700 -1,200 Descending FlightAware
10:32AM 22.6740 114.2320 275° West 231 266 9,000 -1,200 Descending FlightAware
10:33AM 22.6780 114.2130 283° West 233 268 8,700 -1,200 Descending FlightAware
10:33AM 22.6810 114.1910 278° West 236 272 8,300 -1,200 Descending FlightAware
10:33AM 22.6860 114.1650 282° West 234 269 7,900 -1,260 Descending FlightAware
10:34AM 22.6880 114.1500 278° West 235 270 7,600 -1,260 Descending FlightAware
10:34AM 22.6930 114.1250 282° West 235 270 7,200 -900 Descending FlightAware
10:34AM 22.6950 114.1120 279° West 232 267 7,100 -900 Descending FlightAware
10:34AM 22.6990 114.0860 279° West 230 265 6,700 -1,020 Descending FlightAware
10:35AM 22.7030 114.0650 282° West 227 261 6,400 -960 Descending FlightAware
10:35AM 22.7070 114.0370 279° West 224 258 6,000 -960 Descending FlightAware
10:36AM 22.7060 114.0150 267° West 219 252 5,700 -1,080 Descending FlightAware
10:36AM 22.7040 113.9930 264° West 220 253 5,300 -1,080 Descending FlightAware
10:36AM 22.7020 113.9720 264° West 222 255 5,000 -420 Descending FlightAware
10:37AM 22.6990 113.9450 263° West 220 253 5,000  Level FlightAware
10:37AM 22.6970 113.9250 264° West 221 254 5,000  Level FlightAware
10:37AM 22.6960 113.9110 266° West 219 252 5,000  Level FlightAware
10:37AM 22.6950 113.9050 260° West 217 250 5,000  Level FlightAware
10:38AM 22.7080 113.8810 300° West 215 247 5,000  Level FlightAware
10:38AM 22.7130 113.8780 331° Northwest 214 246 5,000  Level FlightAware
10:38AM 22.7310 113.8680 333° Northwest 197 227 5,000  Level FlightAware
10:38AM 22.7480 113.8580 332° Northwest 191 220 5,000  Level FlightAware
10:39AM 22.7640 113.8490 333° Northwest 194 223 5,000  Level FlightAware
10:39AM 22.7770 113.8420 334° Northwest 190 219 5,000 -720 Level FlightAware
10:39AM 22.7930 113.8330 333° Northwest 192 221 4,600 -1,140 Descending FlightAware
10:40AM 22.8030 113.8280 335° Northwest 194 223 4,400 -1,020 Descending FlightAware
10:40AM 22.8220 113.8180 334° Northwest 196 226 4,000 -600 Descending FlightAware
10:40AM 22.8370 113.8090 331° Northwest 194 223 4,000  Level FlightAware
10:41AM 22.8470 113.8020 327° Northwest 190 219 4,000 -300 Level FlightAware
10:41AM 22.8510 113.7950 302° West 187 215 3,900 -540 Descending FlightAware
10:41AM 22.8510 113.7930 270° West 185 213 3,900  Level FlightAware
10:41AM 22.8520 113.7880 282° West 183 211 3,900 -840 Level FlightAware
10:41AM 22.8470 113.7670 256° West 177 204 3,500 -780 Descending FlightAware
10:42AM 22.8410 113.7480 251° West 174 200 3,300 -600 Descending FlightAware
10:42AM 22.8360 113.7340 249° West 172 198 3,100 -360 Descending FlightAware
10:42AM 22.8290 113.7200 242° Southwest 164 189 3,100  Level FlightAware
10:42AM 22.8250 113.7170 215° Southwest 161 185 3,100  Level FlightAware
10:42AM 22.8220 113.7160 197° South 161 185 3,100  Level FlightAware
10:43AM 22.8150 113.7150 188° South 162 186 3,100 -480 Level FlightAware
10:43AM 22.8010 113.7150 180° South 163 188 2,900 -720 Descending FlightAware
10:43AM 22.7820 113.7160 177° South 162 186 2,600 -660 Descending FlightAware
10:43AM 22.7790 113.7170 163° South 162 186 2,600 -660 Level FlightAware
10:44AM 22.7630 113.7250 155° Southeast 157 181 2,300 -720 Descending FlightAware
10:44AM 22.7520 113.7310 153° Southeast 149 171 2,100 -780 Descending FlightAware
10:44AM 22.7390 113.7390 150° Southeast 141 162 1,800 -780 Descending FlightAware
10:45AM 22.7270 113.7450 155° Southeast 139 160 1,600 -720 Descending FlightAware
10:45AM 22.7180 113.7500 153° Southeast 141 162 1,400 -720 Descending FlightAware
10:45AM 22.7060 113.7570 152° Southeast 144 166 1,200 -780 Descending FlightAware
10:46AM 22.6940 113.7630 155° Southeast 148 170 900 -780 Descending FlightAware
10:46AM 22.6820 113.7700 152° Southeast 152 175 700 -720 Descending FlightAware
10:46AM 22.6710 113.7760 153° Southeast 152 175 500 -840 Descending FlightAware
10:47AM 22.6580 113.7830 154° Southeast 150 173 200 -840 Descending FlightAware
10:47AM 22.6460 113.7900 152° Southeast 125 144 -600 Descending FlightAware